Time;durP1;ratioP1;P1;durP2;ratioP2;P2;SDS_P1;SDS_P2;PMS_P1;PMS_P2;Temp;Humidity;BMP_temperature;BMP_pressure;BME280_temperature;BME280_humidity;BME280_pressure;Samples;Min_cycle;Max_cycle;Signal;HPM_P1;HPM_P2
2023/04/08 00:01:42;;;;;;;5.60;2.80;;;;;;;8.63;100.00;100144.00;12180578;19;20007;-78
2023/04/08 00:05:44;;;;;;;7.13;2.40;;;;;;;8.62;100.00;100149.72;12203596;19;20039;-79
2023/04/08 00:09:46;;;;;;;4.53;2.50;;;;;;;8.60;100.00;100147.22;12201111;19;20014;-79
2023/04/08 00:13:48;;;;;;;2.90;1.35;;;;;;;8.56;100.00;100145.13;12180236;19;20004;-79
2023/04/08 00:17:50;;;;;;;4.20;1.92;;;;;;;8.53;100.00;100154.66;12207387;19;20030;-79
2023/04/08 00:21:52;;;;;;;3.33;1.73;;;;;;;8.46;100.00;100150.31;12202545;19;20010;-78
2023/04/08 00:25:54;;;;;;;3.90;1.67;;;;;;;8.41;100.00;100156.50;12181132;19;20014;-79
2023/04/08 00:29:56;;;;;;;3.65;2.15;;;;;;;8.40;100.00;100158.41;12221886;19;20027;-79
2023/04/08 00:33:58;;;;;;;5.60;2.37;;;;;;;8.40;100.00;100149.31;12268492;19;19994;-78
2023/04/08 00:38:00;;;;;;;4.57;2.33;;;;;;;8.39;100.00;100154.00;12216131;19;20010;-80
2023/04/08 00:42:02;;;;;;;5.60;2.20;;;;;;;8.38;100.00;100156.91;12206288;19;20010;-79
2023/04/08 00:46:04;;;;;;;7.60;3.13;;;;;;;8.33;100.00;100162.25;12197648;19;20007;-80
2023/04/08 00:50:09;;;;;;;5.35;2.42;;;;;;;8.28;100.00;100162.09;12175615;19;20013;-79
2023/04/08 00:54:11;;;;;;;5.50;2.35;;;;;;;8.25;100.00;100168.88;12198890;19;20368;-78
2023/04/08 00:58:14;;;;;;;5.88;2.13;;;;;;;8.22;100.00;100164.66;12196451;19;20031;-79
2023/04/08 01:02:42;;;;;;;5.63;2.13;;;;;;;8.18;100.00;100173.59;12177674;19;20556;-80
2023/04/08 01:07:00;;;;;;;4.65;2.25;;;;;;;8.15;100.00;100166.66;12196330;19;20017;-79
2023/04/08 01:11:11;;;;;;;3.70;2.20;;;;;;;8.12;100.00;100169.84;12235678;19;20381;-79
2023/04/08 01:15:13;;;;;;;4.45;2.38;;;;;;;8.10;100.00;100163.75;12247893;19;20017;-79
2023/04/08 01:19:27;;;;;;;3.75;2.25;;;;;;;8.11;100.00;100170.06;12252532;19;20479;-80
2023/04/08 01:23:43;;;;;;;6.93;2.30;;;;;;;8.08;100.00;100167.75;12228185;19;20024;-79
2023/04/08 01:27:47;;;;;;;4.93;1.98;;;;;;;8.07;100.00;100160.59;12250509;19;20087;-79
2023/04/08 01:31:50;;;;;;;3.80;2.20;;;;;;;8.05;100.00;100162.72;12231045;19;20027;-79
2023/04/08 01:35:53;;;;;;;5.00;2.50;;;;;;;7.99;100.00;100165.28;12250590;19;20018;-79
2023/04/08 01:39:56;;;;;;;4.63;2.30;;;;;;;7.95;100.00;100164.06;12253677;19;20021;-79
2023/04/08 01:43:59;;;;;;;6.30;2.17;;;;;;;7.94;100.00;100162.41;12228662;19;20010;-79
2023/04/08 01:48:02;;;;;;;5.70;2.80;;;;;;;7.92;100.00;100160.94;12244374;19;20471;-79
2023/04/08 01:52:08;;;;;;;4.05;2.20;;;;;;;7.89;100.00;100158.66;12249946;19;20039;-79
2023/04/08 01:56:12;;;;;;;5.65;2.60;;;;;;;7.87;100.00;100152.53;12220167;19;21305;-79
2023/04/08 02:00:19;;;;;;;4.82;2.50;;;;;;;7.88;100.00;100159.69;12247908;19;20134;-79
2023/04/08 02:04:21;;;;;;;4.68;2.40;;;;;;;7.86;100.00;100161.84;12248157;19;20024;-79
2023/04/08 02:08:23;;;;;;;4.60;2.33;;;;;;;7.85;100.00;100161.00;12222183;19;20030;-80
2023/04/08 02:12:27;;;;;;;3.50;2.00;;;;;;;7.82;100.00;100164.16;12248304;19;20055;-79
2023/04/08 02:16:39;;;;;;;3.92;2.28;;;;;;;7.81;100.00;100159.75;12232323;19;20042;-79
2023/04/08 02:20:49;;;;;;;5.07;3.17;;;;;;;7.76;100.00;100162.31;12219844;19;20102;-79
2023/04/08 02:24:51;;;;;;;5.45;2.47;;;;;;;7.76;100.00;100170.53;12199104;19;20007;-79
2023/04/08 02:28:55;;;;;;;5.40;2.53;;;;;;;7.75;100.00;100169.72;12173724;19;20022;-79
2023/04/08 02:33:00;;;;;;;4.07;2.55;;;;;;;7.71;100.00;100167.66;12198611;19;20014;-79
2023/04/08 02:37:02;;;;;;;6.63;2.30;;;;;;;7.64;100.00;100170.41;12197965;19;20013;-79
2023/04/08 02:41:04;;;;;;;4.30;2.57;;;;;;;7.54;100.00;100178.31;12177690;19;20013;-79
2023/04/08 02:45:06;;;;;;;5.10;3.10;;;;;;;7.43;100.00;100176.25;12197917;19;22131;-79
2023/04/08 02:49:08;;;;;;;4.60;2.80;;;;;;;7.27;100.00;100175.72;12184991;19;20544;-79
2023/04/08 02:53:10;;;;;;;5.77;2.40;;;;;;;7.07;100.00;100177.72;12171323;19;20010;-79
2023/04/08 02:57:12;;;;;;;5.87;3.03;;;;;;;6.88;100.00;100182.25;12197462;19;20003;-79
2023/04/08 03:01:14;;;;;;;7.40;3.80;;;;;;;6.70;100.00;100182.94;12197348;19;20020;-79
2023/04/08 03:05:16;;;;;;;8.73;4.10;;;;;;;6.54;100.00;100178.78;12175584;19;20003;-79
2023/04/08 03:09:18;;;;;;;6.38;3.75;;;;;;;6.42;100.00;100180.47;12194423;19;20006;-79
2023/04/08 03:13:19;;;;;;;6.15;3.47;;;;;;;6.29;100.00;100183.25;12193490;19;20507;-79
2023/04/08 03:17:21;;;;;;;7.88;3.75;;;;;;;6.16;100.00;100184.09;12174793;19;20058;-79
2023/04/08 03:21:23;;;;;;;7.20;3.90;;;;;;;6.03;100.00;100184.09;12195344;19;20003;-79
2023/04/08 03:25:25;;;;;;;14.50;4.13;;;;;;;5.89;100.00;100183.25;12198646;19;20006;-79
2023/04/08 03:29:27;;;;;;;11.20;4.43;;;;;;;5.72;100.00;100185.53;12172051;19;20380;-79
2023/04/08 03:33:29;;;;;;;10.73;4.80;;;;;;;5.60;100.00;100187.22;12192107;19;20014;-79
2023/04/08 03:37:31;;;;;;;10.60;5.23;;;;;;;5.57;100.00;100195.84;12173904;19;20007;-79
2023/04/08 03:41:32;;;;;;;10.60;5.03;;;;;;;5.48;100.00;100195.19;12207304;19;19998;-79
2023/04/08 03:45:34;;;;;;;13.85;5.72;;;;;;;5.39;100.00;100202.72;12194236;19;20010;-79
2023/04/08 03:49:36;;;;;;;9.68;4.45;;;;;;;5.36;100.00;100197.69;12182233;19;20011;-79
2023/04/08 03:53:38;;;;;;;10.30;5.63;;;;;;;5.34;100.00;100197.03;12198930;19;20332;-79
2023/04/08 03:57:40;;;;;;;9.68;5.57;;;;;;;5.29;100.00;100194.06;12203810;19;20026;-80
2023/04/08 04:01:41;;;;;;;9.52;5.70;;;;;;;5.23;100.00;100200.34;12234963;19;20003;-80
2023/04/08 04:05:44;;;;;;;;;;;;;;;5.15;100.00;100201.41;12228987;19;21724;-79
2023/04/08 04:09:46;;;;;;;11.07;6.00;;;;;;;5.09;100.00;100201.38;12199092;19;20746;-79
2023/04/08 04:13:48;;;;;;;12.38;6.75;;;;;;;5.02;100.00;100207.63;12178490;19;20057;-79
2023/04/08 04:17:50;;;;;;;11.73;6.67;;;;;;;4.97;100.00;100218.34;12203009;19;20069;-79
2023/04/08 04:21:51;;;;;;;12.93;6.68;;;;;;;4.91;100.00;100210.97;12200095;19;20371;-79
2023/04/08 04:25:53;;;;;;;17.35;9.02;;;;;;;4.85;100.00;100211.78;12177541;19;20018;-79
2023/04/08 04:29:55;;;;;;;15.63;7.82;;;;;;;4.86;100.00;100218.09;12197251;19;20479;-79
2023/04/08 04:33:56;;;;;;;21.77;9.38;;;;;;;4.79;100.00;100215.31;12198394;19;20006;-79
2023/04/08 04:37:58;;;;;;;22.02;9.20;;;;;;;4.76;100.00;100213.00;12176950;19;20620;-79
2023/04/08 04:42:00;;;;;;;12.70;6.83;;;;;;;4.71;100.00;100224.50;12197333;19;20098;-79
2023/04/08 04:46:02;;;;;;;15.48;8.50;;;;;;;4.73;100.00;100225.16;12196264;19;20116;-79
2023/04/08 04:50:05;;;;;;;15.05;8.57;;;;;;;4.71;100.00;100218.22;12171066;19;20007;-79
2023/04/08 04:54:08;;;;;;;15.65;8.57;;;;;;;4.69;100.00;100228.47;12198534;19;20919;-79
2023/04/08 04:58:09;;;;;;;16.25;9.43;;;;;;;4.66;100.00;100239.81;12196836;19;20010;-79
2023/04/08 05:02:11;;;;;;;16.73;8.48;;;;;;;4.61;100.00;100234.09;12174966;19;20047;-79
2023/04/08 05:06:13;;;;;;;13.88;8.80;;;;;;;4.59;100.00;100233.47;12207492;19;20006;-79
2023/04/08 05:10:14;;;;;;;16.65;8.30;;;;;;;4.55;100.00;100239.34;12236089;19;20044;-80
2023/04/08 05:14:16;;;;;;;14.18;8.55;;;;;;;4.54;100.00;100248.53;12177642;19;20005;-79
2023/04/08 05:18:18;;;;;;;15.73;8.90;;;;;;;4.50;100.00;100244.53;12196594;19;20007;-80
2023/04/08 05:22:20;;;;;;;21.00;9.13;;;;;;;4.47;100.00;100249.56;12200242;19;20078;-79
2023/04/08 05:26:22;;;;;;;13.48;8.63;;;;;;;4.44;100.00;100249.97;12189274;19;20066;-79
2023/04/08 05:30:24;;;;;;;14.07;9.07;;;;;;;4.42;100.00;100252.03;12202120;19;20006;-79
2023/04/08 05:34:26;;;;;;;17.35;9.15;;;;;;;4.42;100.00;100244.69;12202851;19;20055;-79
2023/04/08 05:38:27;;;;;;;14.68;8.15;;;;;;;4.41;100.00;100256.66;12190189;19;20007;-80
2023/04/08 05:42:30;;;;;;;15.98;8.68;;;;;;;4.41;100.00;100266.72;12202377;19;20094;-79
2023/04/08 05:46:32;;;;;;;17.23;8.73;;;;;;;4.43;100.00;100262.78;12181583;19;20007;-79
2023/04/08 05:50:35;;;;;;;16.17;9.13;;;;;;;4.47;100.00;100266.78;12202409;19;20108;-79
2023/04/08 05:54:36;;;;;;;17.88;8.95;;;;;;;4.51;100.00;100273.50;12207449;19;20684;-79
2023/04/08 05:58:39;;;;;;;15.20;7.70;;;;;;;4.57;100.00;100283.63;12201542;19;20027;-79
2023/04/08 06:02:41;;;;;;;16.80;8.25;;;;;;;4.63;100.00;100289.34;12222188;19;20010;-79
2023/04/08 06:06:43;;;;;;;16.65;8.38;;;;;;;4.70;100.00;100299.28;12250211;19;20095;-78
2023/04/08 06:10:49;;;;;;;14.48;7.85;;;;;;;4.81;100.00;100297.84;12250683;19;20002;-79
2023/04/08 06:14:55;;;;;;;15.90;9.15;;;;;;;4.89;100.00;100299.59;12237281;19;20095;-79
2023/04/08 06:18:56;;;;;;;18.83;9.10;;;;;;;5.02;100.00;100295.03;12214176;19;20009;-79
2023/04/08 06:22:58;;;;;;;14.77;8.27;;;;;;;5.25;100.00;100299.38;12201365;19;20007;-79
2023/04/08 06:27:00;;;;;;;14.90;8.45;;;;;;;5.48;100.00;100299.88;12208752;19;20082;-79
2023/04/08 06:31:02;;;;;;;16.38;9.00;;;;;;;5.70;100.00;100313.41;12215730;19;20006;-79
2023/04/08 06:35:06;;;;;;;;;;;;;;;5.96;100.00;100311.84;12195401;19;20003;-79
2023/04/08 06:39:08;;;;;;;16.52;9.15;;;;;;;6.27;100.00;100314.81;12207521;19;19903;-79
2023/04/08 06:43:10;;;;;;;53.30;24.45;;;;;;;6.55;100.00;100316.50;12229087;19;20011;-78
2023/04/08 06:47:15;;;;;;;20.88;12.32;;;;;;;6.71;100.00;100320.72;12199569;19;20081;-78
2023/04/08 06:51:17;;;;;;;47.75;21.73;;;;;;;6.88;100.00;100321.97;12243444;19;20009;-78
2023/04/08 06:55:19;;;;;;;20.08;12.07;;;;;;;7.12;100.00;100322.34;12240513;19;20014;-78
2023/04/08 06:59:21;;;;;;;19.40;10.63;;;;;;;7.27;100.00;100326.50;12208544;19;20042;-79
2023/04/08 07:03:23;;;;;;;15.20;8.52;;;;;;;7.51;100.00;100338.63;12219421;19;20103;-79
2023/04/08 07:07:25;;;;;;;13.55;7.72;;;;;;;7.72;100.00;100340.25;12212780;19;20006;-79
2023/04/08 07:11:26;;;;;;;13.68;7.75;;;;;;;8.00;100.00;100341.78;12190442;19;20070;-78
2023/04/08 07:15:28;;;;;;;15.50;8.30;;;;;;;8.13;100.00;100341.72;12222789;19;20026;-79
2023/04/08 07:19:31;;;;;;;14.07;8.75;;;;;;;8.29;100.00;100342.22;12192521;19;20006;-79
2023/04/08 07:23:32;;;;;;;13.07;7.45;;;;;;;8.49;100.00;100351.19;12217402;19;20030;-79
2023/04/08 07:27:34;;;;;;;14.48;7.65;;;;;;;8.75;100.00;100354.81;12209109;19;20038;-79
2023/04/08 07:31:36;;;;;;;14.07;8.60;;;;;;;8.90;100.00;100352.56;12187043;19;20504;-80
2023/04/08 07:35:38;;;;;;;13.65;8.57;;;;;;;8.92;100.00;100352.31;12206556;19;20031;-80
2023/04/08 07:39:40;;;;;;;17.80;8.48;;;;;;;8.99;99.95;100359.44;12204630;19;20038;-78
2023/04/08 07:43:42;;;;;;;33.33;17.27;;;;;;;9.02;95.04;100356.25;12182629;19;20143;-79
2023/04/08 07:47:44;;;;;;;14.23;9.05;;;;;;;9.18;97.02;100364.97;12202346;19;20385;-79
2023/04/08 07:51:46;;;;;;;12.55;8.82;;;;;;;9.37;93.53;100369.44;12207440;19;20078;-79
2023/04/08 07:55:48;;;;;;;21.75;13.63;;;;;;;9.47;92.38;100372.47;12182159;19;20051;-79
2023/04/08 07:59:50;;;;;;;11.52;8.40;;;;;;;9.58;86.96;100368.97;12200058;19;20011;-79
2023/04/08 08:03:52;;;;;;;13.98;9.50;;;;;;;9.53;84.08;100373.47;12212379;19;20010;-79
2023/04/08 08:07:55;;;;;;;17.40;11.02;;;;;;;9.50;84.31;100383.03;12190008;19;20007;-80
2023/04/08 08:11:56;;;;;;;12.45;9.48;;;;;;;9.56;85.96;100386.78;12205101;19;20018;-79
2023/04/08 08:15:58;;;;;;;15.95;10.35;;;;;;;9.91;88.23;100383.41;12208673;19;20027;-79
2023/04/08 08:20:02;;;;;;;13.00;8.10;;;;;;;10.01;82.73;100379.00;12174769;19;20006;-78
2023/04/08 08:24:04;;;;;;;12.45;7.45;;;;;;;9.97;81.09;100385.22;12204721;19;20050;-79
2023/04/08 08:28:06;;;;;;;11.50;7.82;;;;;;;10.15;81.10;100392.59;12227733;19;20018;-78
2023/04/08 08:32:08;;;;;;;10.63;7.47;;;;;;;10.38;80.48;100391.88;12196329;19;20019;-79
2023/04/08 08:36:11;;;;;;;;;;;;;;;10.61;79.35;100386.41;12207320;19;20002;-79
2023/04/08 08:40:13;;;;;;;10.80;6.80;;;;;;;10.83;76.33;100397.75;12219512;19;19934;-80
2023/04/08 08:44:15;;;;;;;11.18;7.63;;;;;;;11.14;75.66;100402.09;12196091;19;20014;-78
2023/04/08 08:48:16;;;;;;;12.47;7.13;;;;;;;11.34;72.63;100409.19;12232777;19;20007;-78
2023/04/08 08:52:18;;;;;;;11.60;7.35;;;;;;;11.63;73.93;100402.69;12212144;19;20087;-79
2023/04/08 08:56:20;;;;;;;11.00;6.85;;;;;;;11.65;70.00;100413.47;12178866;19;20011;-78
2023/04/08 09:00:36;;;;;;;14.88;7.82;;;;;;;11.47;69.01;100413.59;12198363;19;20506;-78
2023/04/08 09:04:38;;;;;;;12.77;7.30;;;;;;;11.32;68.13;100414.91;12191815;19;20010;-79
2023/04/08 09:08:40;;;;;;;12.68;6.63;;;;;;;11.60;66.98;100416.09;12196087;19;20384;-79
2023/04/08 09:12:55;;;;;;;10.30;6.97;;;;;;;11.77;67.87;100421.72;12197765;19;20084;-79
2023/04/08 09:16:57;;;;;;;11.38;7.30;;;;;;;12.05;60.93;100423.75;12179230;19;20010;-79
2023/04/08 09:21:00;;;;;;;12.30;7.45;;;;;;;12.10;63.64;100415.53;12203162;19;20006;-79
2023/04/08 09:25:22;;;;;;;13.05;7.45;;;;;;;12.03;62.42;100431.44;12195767;19;20003;-78
2023/04/08 09:29:27;;;;;;;12.60;7.38;;;;;;;12.04;61.09;100435.84;12178423;19;20046;-78
2023/04/08 09:33:35;;;;;;;14.10;7.72;;;;;;;11.81;60.92;100434.81;12210480;19;20004;-78
2023/04/08 09:37:38;;;;;;;14.85;7.25;;;;;;;11.53;58.73;100438.31;12187251;19;20031;-78
2023/04/08 09:41:42;;;;;;;12.38;7.95;;;;;;;11.67;60.04;100444.44;12215163;19;20492;-78
2023/04/08 09:45:45;;;;;;;12.45;7.93;;;;;;;11.77;60.00;100430.00;12209499;19;20002;-78
2023/04/08 09:49:52;;;;;;;10.88;6.90;;;;;;;11.86;58.52;100436.88;12190483;19;20015;-79
2023/04/08 09:54:05;;;;;;;10.68;6.78;;;;;;;11.96;57.63;100428.81;12213221;19;19999;-80
2023/04/08 09:58:18;;;;;;;15.15;7.18;;;;;;;12.07;57.97;100443.66;12208295;19;20015;-80
2023/04/08 10:02:24;;;;;;;;;;;;;;;12.17;55.67;100430.06;12196132;19;20029;-80
2023/04/08 10:06:28;;;;;;;12.60;6.63;;;;;;;12.03;56.16;100434.19;12211452;19;20264;-82
2023/04/08 10:10:30;;;;;;;12.85;6.88;;;;;;;11.99;58.83;100430.25;12192870;19;20002;-80
2023/04/08 10:14:32;;;;;;;12.52;7.50;;;;;;;11.88;57.74;100434.69;12214453;19;20006;-80
2023/04/08 10:18:35;;;;;;;11.52;6.80;;;;;;;12.01;58.26;100437.19;12214916;19;20079;-79
2023/04/08 10:22:37;;;;;;;9.75;6.55;;;;;;;11.97;58.40;100432.41;12190055;19;20003;-80
2023/04/08 10:26:42;;;;;;;12.07;6.65;;;;;;;11.79;57.09;100430.63;12209311;19;20007;-80
2023/04/08 10:30:51;;;;;;;9.20;5.65;;;;;;;11.90;56.06;100427.03;12209065;19;20027;-80
2023/04/08 10:34:53;;;;;;;9.27;5.03;;;;;;;12.12;53.03;100435.47;12193532;19;20015;-80
2023/04/08 10:38:55;;;;;;;11.02;5.90;;;;;;;12.52;54.00;100435.47;12211110;19;20018;-80
2023/04/08 10:42:58;;;;;;;9.27;5.17;;;;;;;12.86;52.38;100432.75;12209953;19;20024;-80
2023/04/08 10:47:00;;;;;;;7.55;4.47;;;;;;;13.19;51.79;100428.31;12191837;19;20070;-80
2023/04/08 10:51:02;;;;;;;10.90;5.38;;;;;;;13.09;52.29;100431.75;12211190;19;20826;-80
2023/04/08 10:55:05;;;;;;;7.47;4.60;;;;;;;13.38;50.54;100426.13;12212274;19;20493;-79
2023/04/08 10:59:09;;;;;;;8.65;4.80;;;;;;;13.69;51.49;100421.91;12183847;19;20014;-80
2023/04/08 11:03:11;;;;;;;8.07;4.30;;;;;;;14.00;51.80;100417.59;12216402;19;20026;-80
2023/04/08 11:07:19;;;;;;;8.48;5.03;;;;;;;14.22;50.31;100425.06;12213610;19;20018;-79
2023/04/08 11:11:22;;;;;;;7.90;5.00;;;;;;;14.23;50.76;100415.66;12189812;19;20390;-80
2023/04/08 11:15:24;;;;;;;10.40;5.55;;;;;;;14.35;50.78;100419.13;12207172;19;20043;-80
2023/04/08 11:19:26;;;;;;;16.93;9.40;;;;;;;14.11;51.79;100424.13;12215862;19;20506;-80
2023/04/08 11:23:28;;;;;;;8.90;5.43;;;;;;;13.86;52.31;100421.84;12191758;19;20495;-80
2023/04/08 11:27:30;;;;;;;10.50;5.65;;;;;;;13.77;53.56;100413.16;12207007;19;20010;-79
2023/04/08 11:31:32;;;;;;;9.85;4.95;;;;;;;14.05;52.39;100414.91;12192437;19;20018;-80
2023/04/08 11:35:40;;;;;;;9.68;5.85;;;;;;;14.14;52.96;100412.50;12225724;19;20017;-80
2023/04/08 11:39:56;;;;;;;11.98;7.38;;;;;;;14.18;52.21;100402.56;12249727;19;20013;-82
2023/04/08 11:43:58;;;;;;;9.93;5.35;;;;;;;14.21;52.61;100412.31;12250371;19;20023;-81
2023/04/08 11:47:59;;;;;;;10.95;7.95;;;;;;;14.47;52.31;100410.66;12245535;19;20011;-80
2023/04/08 11:52:04;;;;;;;15.10;5.78;;;;;;;14.49;52.77;100405.69;12233302;19;20006;-80
2023/04/08 11:56:20;;;;;;;11.95;7.13;;;;;;;14.42;52.33;100408.66;12208462;19;20046;-80
2023/04/08 12:00:23;;;;;;;8.50;4.97;;;;;;;14.62;52.10;100413.63;12227514;19;20040;-80
2023/04/08 12:04:26;;;;;;;10.43;5.53;;;;;;;14.72;51.61;100407.34;12225055;19;20111;-80
2023/04/08 12:08:28;;;;;;;12.80;6.85;;;;;;;14.84;51.46;100404.38;12203281;19;20018;-80
2023/04/08 12:12:30;;;;;;;10.55;5.63;;;;;;;15.27;50.13;100400.59;12220401;19;20033;-78
2023/04/08 12:16:32;;;;;;;9.05;4.80;;;;;;;15.20;50.33;100397.19;12184596;19;20014;-78
2023/04/08 12:20:34;;;;;;;8.32;4.55;;;;;;;15.24;49.57;100401.13;12207286;19;20006;-82
2023/04/08 12:24:37;;;;;;;11.63;7.35;;;;;;;15.13;50.73;100396.59;12221710;19;20077;-80
2023/04/08 12:28:38;;;;;;;8.90;5.75;;;;;;;15.66;50.92;100391.94;12203510;19;20011;-81
2023/04/08 12:32:41;;;;;;;8.13;5.33;;;;;;;16.00;50.63;100388.78;12223445;19;20070;-81
2023/04/08 12:36:43;;;;;;;8.25;5.72;;;;;;;16.93;48.00;100390.72;12230440;19;20003;-80
2023/04/08 12:40:48;;;;;;;7.32;4.32;;;;;;;17.02;45.41;100370.38;12196663;19;20060;-79
2023/04/08 12:44:50;;;;;;;6.68;4.40;;;;;;;17.43;45.65;100367.56;12213355;19;20002;-78
2023/04/08 12:48:52;;;;;;;12.50;7.22;;;;;;;18.32;43.20;100365.00;12207821;19;20014;-78
2023/04/08 12:53:05;;;;;;;7.28;4.25;;;;;;;18.70;43.09;100350.50;12186265;19;20041;-78
2023/04/08 12:57:07;;;;;;;5.78;4.47;;;;;;;19.42;42.70;100351.53;12205117;19;20443;-80
2023/04/08 13:01:11;;;;;;;8.60;5.25;;;;;;;20.20;39.57;100361.53;12213202;19;20007;-79
2023/04/08 13:05:13;;;;;;;9.18;4.97;;;;;;;19.85;39.46;100354.44;12206970;19;20022;-78
2023/04/08 13:09:14;;;;;;;8.75;6.05;;;;;;;19.90;39.55;100368.38;12248933;19;20018;-78
2023/04/08 13:13:17;;;;;;;8.47;5.53;;;;;;;18.94;41.62;100370.16;12221041;19;20014;-78
2023/04/08 13:17:19;;;;;;;;;;;;;;;17.74;42.60;100376.66;12203246;19;20113;-78
2023/04/08 13:21:20;;;;;;;16.55;11.80;;;;;;;18.52;43.23;100369.59;12229126;19;19980;-79
2023/04/08 13:25:22;;;;;;;33.70;22.50;;;;;;;19.78;40.13;100367.94;12225316;19;20029;-78
2023/04/08 13:29:24;;;;;;;13.33;9.30;;;;;;;20.29;39.52;100372.91;12204003;19;20076;-78
2023/04/08 13:33:26;;;;;;;6.53;5.17;;;;;;;20.89;38.67;100361.94;12222553;19;20637;-77
2023/04/08 13:37:29;;;;;;;6.73;4.40;;;;;;;21.96;37.29;100359.13;12219956;19;20256;-79
2023/04/08 13:41:31;;;;;;;8.13;5.20;;;;;;;22.02;36.17;100355.06;12189306;19;20007;-79
2023/04/08 13:45:32;;;;;;;10.32;7.88;;;;;;;21.10;37.04;100372.78;12197054;19;20002;-78
2023/04/08 13:49:34;;;;;;;10.95;8.57;;;;;;;20.56;38.01;100363.03;12178175;19;20038;-77
2023/04/08 13:53:36;;;;;;;6.90;4.47;;;;;;;19.48;38.78;100367.16;12197533;19;20015;-78
2023/04/08 13:57:38;;;;;;;7.17;4.10;;;;;;;18.54;40.38;100358.16;12197924;19;20023;-77
2023/04/08 14:01:40;;;;;;;8.88;4.78;;;;;;;17.44;42.43;100355.28;12184868;19;21311;-80
2023/04/08 14:05:42;;;;;;;10.85;7.82;;;;;;;16.38;46.15;100368.88;12197999;19;20019;-80
2023/04/08 14:09:43;;;;;;;7.53;4.90;;;;;;;15.75;48.93;100364.53;12205939;19;20014;-78
2023/04/08 14:13:45;;;;;;;10.18;7.15;;;;;;;15.33;50.38;100363.41;12181363;19;20483;-79
2023/04/08 14:17:48;;;;;;;8.02;6.03;;;;;;;15.02;52.62;100368.78;12218579;19;20023;-78
2023/04/08 14:21:50;;;;;;;18.83;12.65;;;;;;;14.95;53.91;100370.91;12215923;19;20002;-79
2023/04/08 14:25:52;;;;;;;9.15;5.53;;;;;;;14.77;54.08;100363.00;12199805;19;21419;-79
2023/04/08 14:29:54;;;;;;;8.98;5.47;;;;;;;14.51;56.64;100364.66;12213759;19;20038;-81
2023/04/08 14:33:55;;;;;;;10.38;5.93;;;;;;;14.21;57.70;100371.56;12218551;19;20015;-79
2023/04/08 14:37:57;;;;;;;20.20;12.30;;;;;;;13.88;58.97;100375.34;12186840;19;20006;-79
2023/04/08 14:42:00;;;;;;;15.48;10.60;;;;;;;13.84;59.83;100382.50;12209529;19;20034;-78
2023/04/08 14:46:02;;;;;;;;;;;;;;;13.91;60.82;100386.72;12204166;19;20010;-78
2023/04/08 14:50:04;;;;;;;9.75;5.93;;;;;;;14.13;59.93;100383.97;12185508;19;19938;-78
2023/04/08 14:54:06;;;;;;;12.43;7.65;;;;;;;14.19;60.13;100384.88;12208144;19;20014;-78
2023/04/08 14:58:08;;;;;;;12.88;8.88;;;;;;;14.01;60.49;100390.72;12206481;19;20010;-78
2023/04/08 15:02:10;;;;;;;13.95;7.43;;;;;;;14.00;61.07;100386.28;12188047;19;20007;-79
2023/04/08 15:06:15;;;;;;;8.57;5.20;;;;;;;14.08;61.54;100383.91;12212612;19;20011;-79
2023/04/08 15:10:17;;;;;;;9.88;6.05;;;;;;;14.25;62.01;100386.59;12208815;19;20014;-78
2023/04/08 15:14:19;;;;;;;11.90;6.88;;;;;;;14.26;61.02;100381.88;12187501;19;20003;-78
2023/04/08 15:18:20;;;;;;;20.70;13.50;;;;;;;14.07;62.27;100384.16;12209841;19;20070;-78
2023/04/08 15:22:22;;;;;;;19.90;13.50;;;;;;;13.93;62.58;100394.81;12213360;19;20010;-79
2023/04/08 15:26:24;;;;;;;13.18;7.53;;;;;;;13.74;64.01;100397.06;12186146;19;20003;-78
2023/04/08 15:30:26;;;;;;;11.70;6.40;;;;;;;13.89;63.02;100404.69;12209141;19;20019;-79
2023/04/08 15:34:28;;;;;;;9.13;5.93;;;;;;;14.24;63.09;100395.97;12205491;19;20031;-78
2023/04/08 15:38:32;;;;;;;10.65;6.20;;;;;;;15.04;61.18;100401.78;12203584;19;20023;-80
2023/04/08 15:42:34;;;;;;;9.95;5.18;;;;;;;15.69;59.03;100395.03;12207161;19;20035;-79
2023/04/08 15:46:36;;;;;;;12.70;5.38;;;;;;;15.97;56.68;100401.28;12187928;19;20015;-78
2023/04/08 15:50:38;;;;;;;7.10;5.17;;;;;;;16.31;56.36;100400.88;12204228;19;20010;-78
2023/04/08 15:54:40;;;;;;;8.45;5.80;;;;;;;15.86;56.48;100397.66;12207805;19;20456;-78
2023/04/08 15:58:43;;;;;;;9.40;5.15;;;;;;;15.04;58.32;100399.84;12183314;19;20074;-78
2023/04/08 16:02:45;;;;;;;9.68;6.05;;;;;;;14.65;60.22;100398.41;12206241;19;20043;-78
2023/04/08 16:06:47;;;;;;;9.07;5.93;;;;;;;14.31;61.72;100404.13;12205646;19;20010;-79
2023/04/08 16:10:49;;;;;;;10.63;5.85;;;;;;;14.02;62.93;100409.88;12178348;19;20189;-78
2023/04/08 16:14:51;;;;;;;10.38;5.88;;;;;;;13.71;64.87;100410.56;12198734;19;20006;-78
2023/04/08 16:18:54;;;;;;;8.80;5.80;;;;;;;13.57;64.73;100413.72;12201394;19;20007;-78
2023/04/08 16:22:57;;;;;;;22.00;15.13;;;;;;;13.48;65.15;100419.94;12185238;19;20511;-78
2023/04/08 16:26:59;;;;;;;22.95;19.20;;;;;;;13.32;66.65;100416.09;12200705;19;20011;-78
2023/04/08 16:31:02;;;;;;;10.00;7.60;;;;;;;13.35;66.65;100421.13;12207986;19;20007;-78
2023/04/08 16:35:06;;;;;;;11.02;6.85;;;;;;;13.34;66.99;100425.81;12189574;19;20007;-78
2023/04/08 16:39:08;;;;;;;10.63;7.43;;;;;;;13.13;67.59;100427.38;12203865;19;20011;-78
2023/04/08 16:43:10;;;;;;;10.82;7.50;;;;;;;12.96;69.47;100429.31;12199589;19;20002;-78
2023/04/08 16:47:15;;;;;;;12.88;7.72;;;;;;;12.78;69.35;100424.84;12178594;19;20381;-78
2023/04/08 16:51:18;;;;;;;10.98;6.50;;;;;;;12.67;69.63;100429.38;12198508;19;20050;-78
2023/04/08 16:55:19;;;;;;;10.18;5.45;;;;;;;12.44;70.76;100429.50;12199915;19;20018;-78
2023/04/08 16:59:21;;;;;;;11.10;5.88;;;;;;;12.10;73.52;100437.66;12180676;19;20375;-78
2023/04/08 17:03:23;;;;;;;9.23;5.60;;;;;;;11.92;73.92;100440.56;12216658;19;20091;-77
2023/04/08 17:07:27;;;;;;;10.48;5.70;;;;;;;11.81;75.31;100440.34;12209382;19;20011;-78
2023/04/08 17:11:29;;;;;;;10.48;6.18;;;;;;;11.69;75.65;100436.75;12246146;19;20007;-77
2023/04/08 17:15:33;;;;;;;11.00;6.37;;;;;;;11.66;76.12;100440.00;12255283;19;20021;-78
2023/04/08 17:19:35;;;;;;;9.82;6.32;;;;;;;11.57;75.79;100439.53;12192157;19;20251;-78
2023/04/08 17:23:37;;;;;;;12.02;7.55;;;;;;;11.48;78.19;100456.66;12202775;19;20460;-78
2023/04/08 17:27:40;;;;;;;13.60;8.30;;;;;;;11.48;77.54;100452.00;12201448;19;20015;-79
2023/04/08 17:31:43;;;;;;;12.25;6.78;;;;;;;11.56;78.07;100461.84;12183760;19;20024;-79
2023/04/08 17:35:45;;;;;;;12.25;8.18;;;;;;;11.58;79.31;100457.75;12204710;19;20015;-79
2023/04/08 17:39:46;;;;;;;12.27;7.03;;;;;;;11.57;81.24;100463.50;12207321;19;20010;-79
2023/04/08 17:43:48;;;;;;;12.00;7.85;;;;;;;11.46;82.08;100465.19;12183716;19;20449;-79
2023/04/08 17:47:51;;;;;;;11.07;6.67;;;;;;;11.33;81.81;100466.28;12202880;19;20003;-79
2023/04/08 17:51:52;;;;;;;11.85;7.70;;;;;;;11.33;81.22;100470.94;12201840;19;20260;-78
2023/04/08 17:55:54;;;;;;;16.08;9.23;;;;;;;11.34;81.01;100478.16;12192743;19;20013;-78
2023/04/08 17:59:56;;;;;;;13.30;6.45;;;;;;;11.27;81.27;100475.50;12215510;19;20043;-78
2023/04/08 18:03:58;;;;;;;13.43;7.03;;;;;;;11.18;81.34;100474.16;12215686;19;20036;-79
2023/04/08 18:07:59;;;;;;;11.05;6.43;;;;;;;11.14;81.15;100478.47;12190057;19;20376;-78
2023/04/08 18:12:05;;;;;;;17.08;9.48;;;;;;;11.04;80.19;100481.00;12228493;19;20068;-78
2023/04/08 18:16:19;;;;;;;9.77;5.88;;;;;;;11.00;80.08;100485.28;12236920;19;20014;-79
2023/04/08 18:20:21;;;;;;;11.10;6.15;;;;;;;10.92;79.29;100492.00;12215148;19;20006;-78
2023/04/08 18:24:23;;;;;;;10.27;6.18;;;;;;;10.88;77.91;100494.34;12238324;19;20035;-78
2023/04/08 18:28:25;;;;;;;10.60;5.53;;;;;;;10.85;77.82;100500.34;12230989;19;20717;-78
2023/04/08 18:32:26;;;;;;;12.98;4.97;;;;;;;10.80;77.72;100504.91;12205031;19;20034;-79